AirNav   TITAN Aviation Fuels
 
 1670 users online  

58MO Mercy Hospital Jefferson Heliport
Crystal City, Missouri, USA

GOING TO CRYSTAL CITY?


FAA INFORMATION EFFECTIVE 21 APRIL 2022

Location

FAA Identifier: 58MO
Lat/Long: 38-11-44.0100N 090-23-36.1800W
38-11.733500N 090-23.603000W
38.1955583,-90.3933833
(estimated)
Elevation: 435 ft. / 133 m (estimated)
Variation: 02E (1985)
From city: 1 mile S of CRYSTAL CITY, MO
Time zone: UTC -5 (UTC -6 during Standard Time)
Zip code: 63028

Heliport Operations

Heliport use: Private use, MEDICAL.
Activation date: 07/1989
Control tower: no
ARTCC: KANSAS CITY CENTER
FSS: SAINT LOUIS FLIGHT SERVICE STATION
Attendance: CONTINUOUS
Wind indicator: yes
Segmented circle: yes

Nearby radio navigation aids

VOR radial/distance  VOR name  Freq  Var
FAMr345/32.2FARMINGTON VORTAC115.7001E
TOYr210/39.5TROY VORTAC116.0004E

Heliport Services

Runway Information

Helipad H1

Dimensions: 60 x 60 ft. / 18 x 18 m
Surface: concrete
Latitude: 38-11.733500N
Longitude: 090-23.603000W
Elevation: 435.0 ft.
Traffic pattern: leftleft

Heliport Ownership and Management from official FAA records

Ownership: Privately-owned
Owner: MERCY HOSPITAL JEFFERSON
HWY 61 SOUTH
CRYSTAL CITY, MO 63019
Phone 314-933-1000
Manager: JOSEPH COPUS
1400 US HIGHWAY 61
CRYSTAL CITY, MO 63019
Phone 314-933-1000
SENIOR MANAGER OF FACILITIES.

Heliport Operational Statistics

Aircraft based on the field: 1
Helicopters: 1
    

Additional Remarks

A52-H1 70' BLDG 75' NORTH; 30' TREES 100' EAST & SOUTH.
FOR CD CTC ST LOUIS APCH AT 314-890-1018.

Instrument Procedures

There are no published instrument procedures at 58MO.

Some nearby airports with instrument procedures:

KFES - Festus Memorial Airport (0 nm E)
8WC - Washington County Airport (23 nm SW)
KCPS - St Louis Downtown Airport (25 nm NE)
KFAM - Farmington Regional Airport (26 nm S)
KSUS - Spirit of St Louis Airport (31 nm NW)
 
Loc | Ops | Rwys | IFR | FBO | Links
Com | Nav | Svcs | Stats | Notes
Area around 58MO (Mercy Hospital Jefferson Heliport)
 
Road maps at: MapQuest Bing Google
 
Aerial photo
No photo
 
Sectional chart

 
Airport distance calculator
Flying to Mercy Hospital Jefferson Heliport? Find the distance to fly.

From to 58MO

Sunrise and sunset
Times for 18-May-2022
 Local
(UTC-5)
 Zulu
(UTC)
Morning civil twilight05:1910:19
Sunrise05:4910:49
Sunset20:0701:07
Evening civil twilight20:3701:37

Current date and time
Zulu (UTC)  18-May-2022 16:26:12
Local (UTC-5)  18-May-2022 11:26:12
 
METAR
KCPS 
25nm NE 
181553Z 24004KT 10SM FEW024 BKN075 OVC090 20/17 A2979 RMK AO2 SLP085 T02000172
KFAM 
26nm S 
181556Z AUTO 27004KT 10SM CLR 22/17 A2986 RMK AO2 SLP113 T02170172
KSUS 
30nm NW 
181554Z 26010KT 6SM HZ BKN018 BKN045 OVC060 22/18 A2979 RMK AO2 RAE1456B20E37 SLP080 P0000 T02170183
KPCD 
32nm SE 
181615Z AUTO 23006KT 10SM BKN050 22/18 A2983 RMK AO2 T02180179
KSAR 
33nm E 
181615Z AUTO 20006KT 10SM BKN110 20/17 A2983 RMK AO2 T01960171
KBLV 
33nm NE 
181556Z 17005KT 10SM FEW036 BKN060 BKN140 OVC190 20/17 A2979 RMK AO2A SLP088 P0000 T02020170 $
KSTL 
33nm N 
181551Z 24006KT 10SM -RA OVC016 19/17 A2980 RMK AO2 RAB1459 SLP082 P0002 T01940167 $
KFYG 
37nm NW 
181615Z AUTO 28014G20KT 10SM FEW020 23/21 A2980 RMK AO2
KSET 
44nm N 
181623Z AUTO 26006KT 3SM -RA BR FEW007 BKN013 OVC018 19/17 A2980 RMK AO2 P0001 T01890167
KALN 
45nm N 
181550Z 18005KT 3SM BKN026 OVC060 18/17 A2981 -RA BR
TAF
KCPS 
25nm NE 
181319Z 1813/1912 VRB05KT P6SM -SHRA OVC050 FM181400 21008KT P6SM OVC040 TEMPO 1815/1818 BKN025 FM181800 26008KT P6SM BKN040 FM190000 VRB03KT P6SM BKN250 TEMPO 1908/1912 5SM BR
KSUS 
30nm NW 
181134Z 1812/1912 20008KT P6SM -SHRA OVC050 FM181400 21008KT P6SM OVC040 TEMPO 1815/1818 BKN025 FM181800 26008KT P6SM BKN040 FM190000 VRB03KT P6SM BKN250 TEMPO 1908/1912 5SM BR
NOTAMs
Click for the latest NOTAMs
NOTAMs are issued by the DoD/FAA and will open in a separate window not controlled by AirNav.

 

 
 

Would you like to see your business listed on this page?

 If your business provides an interesting product or service to pilots, flight crews, aircraft, or users of the Mercy Hospital Jefferson Heliport, you should consider listing it here.  To start the listing process, click on the button below
 
Add a business
 

Other Pages about Mercy Hospital Jefferson Heliport

Update a link
 
Copyright © AirNav, LLC. All rights reserved. Privacy Policy  Contact